Time;durP1;ratioP1;P1;durP2;ratioP2;P2;SDS_P1;SDS_P2;PMS_P1;PMS_P2;Temp;Humidity;BMP_temperature;BMP_pressure;BME280_temperature;BME280_humidity;BME280_pressure;Samples;Min_cycle;Max_cycle;Signal;HPM_P1;HPM_P2
2023/10/22 00:02:16;;;;;;;5.82;1.20;;;;;;;;;;5007101;28;20147;-64
2023/10/22 00:04:43;;;;;;;6.82;1.17;;;;;;;;;;5007709;28;20033;-64
2023/10/22 00:07:09;;;;;;;5.07;1.20;;;;;;;;;;5008889;28;20029;-65
2023/10/22 00:09:35;;;;;;;6.75;1.60;;;;;;;;;;5006868;28;20036;-65
2023/10/22 00:12:01;;;;;;;6.72;1.42;;;;;;;;;;5008145;28;20026;-65
2023/10/22 00:14:28;;;;;;;7.20;1.02;;;;;;;;;;5007002;28;20029;-65
2023/10/22 00:16:54;;;;;;;9.55;1.73;;;;;;;;;;5007821;28;20035;-65
2023/10/22 00:19:20;;;;;;;9.35;1.30;;;;;;;;;;5007625;28;20085;-65
2023/10/22 00:21:46;;;;;;;5.20;1.35;;;;;;;;;;5008225;28;20060;-64
2023/10/22 00:24:12;;;;;;;4.65;1.20;;;;;;;;;;5008664;28;20033;-64
2023/10/22 00:26:39;;;;;;;6.47;1.45;;;;;;;;;;5008361;28;20041;-65
2023/10/22 00:29:06;;;;;;;5.18;1.20;;;;;;;;;;5007564;28;20084;-65
2023/10/22 00:31:32;;;;;;;4.97;1.30;;;;;;;;;;5008521;28;20160;-65
2023/10/22 00:33:58;;;;;;;8.63;1.35;;;;;;;;;;5007649;28;20033;-64
2023/10/22 00:36:24;;;;;;;6.47;1.38;;;;;;;;;;5007784;28;20164;-65
2023/10/22 00:38:51;;;;;;;8.00;1.83;;;;;;;;;;5007899;28;20489;-65
2023/10/22 00:41:17;;;;;;;4.95;1.23;;;;;;;;;;5006700;28;20030;-65
2023/10/22 00:43:43;;;;;;;16.88;1.77;;;;;;;;;;5008369;28;20030;-65
2023/10/22 00:46:16;;;;;;;5.75;1.00;;;;;;;;;;5008139;28;20033;-65
2023/10/22 00:48:42;;;;;;;4.32;1.00;;;;;;;;;;5006572;28;20033;-65
2023/10/22 00:51:08;;;;;;;5.93;1.10;;;;;;;;;;5009143;28;20798;-65
2023/10/22 00:53:34;;;;;;;5.70;1.20;;;;;;;;;;5006478;28;20657;-65
2023/10/22 00:56:00;;;;;;;8.75;1.70;;;;;;;;;;5007589;28;20048;-65
2023/10/22 00:58:27;;;;;;;6.75;1.50;;;;;;;;;;5008501;28;20053;-65
2023/10/22 01:00:53;;;;;;;6.80;1.52;;;;;;;;;;5006891;28;20060;-65
2023/10/22 01:03:19;;;;;;;4.30;1.02;;;;;;;;;;5006857;28;20808;-65
2023/10/22 01:05:45;;;;;;;5.57;1.00;;;;;;;;;;5007562;28;20950;-65
2023/10/22 01:08:11;;;;;;;6.05;1.20;;;;;;;;;;5007276;28;20037;-64
2023/10/22 01:10:37;;;;;;;7.75;0.98;;;;;;;;;;5006430;28;20447;-64
2023/10/22 01:13:04;;;;;;;7.35;1.00;;;;;;;;;;5007428;28;20068;-64
2023/10/22 01:15:30;;;;;;;9.20;2.15;;;;;;;;;;5006748;28;20084;-65
2023/10/22 01:17:56;;;;;;;3.90;0.90;;;;;;;;;;5007407;28;20037;-65
2023/10/22 01:20:22;;;;;;;4.50;1.13;;;;;;;;;;5005447;28;20041;-65
2023/10/22 01:22:48;;;;;;;4.28;0.90;;;;;;;;;;5004904;28;20029;-65
2023/10/22 01:25:14;;;;;;;4.35;0.80;;;;;;;;;;5007530;28;20033;-65
2023/10/22 01:27:44;;;;;;;4.40;1.10;;;;;;;;;;5006291;28;20042;-65
2023/10/22 01:30:10;;;;;;;6.15;1.23;;;;;;;;;;5005792;28;20048;-65
2023/10/22 01:32:36;;;;;;;5.43;1.20;;;;;;;;;;5007731;28;20029;-65
2023/10/22 01:35:02;;;;;;;6.00;0.80;;;;;;;;;;5001465;28;20034;-65
2023/10/22 01:37:28;;;;;;;3.10;0.90;;;;;;;;;;5006365;28;20033;-65
2023/10/22 01:39:57;;;;;;;4.57;0.80;;;;;;;;;;5006304;28;20038;-65
2023/10/22 01:42:23;;;;;;;4.13;1.23;;;;;;;;;;5006877;28;20072;-65
2023/10/22 01:44:49;;;;;;;5.32;1.52;;;;;;;;;;5007654;28;20026;-65
2023/10/22 01:47:16;;;;;;;3.30;0.68;;;;;;;;;;5007399;28;20034;-64
2023/10/22 01:49:42;;;;;;;2.45;0.68;;;;;;;;;;5008744;28;20378;-64
2023/10/22 01:52:10;;;;;;;3.83;1.35;;;;;;;;;;5010134;28;20029;-64
2023/10/22 01:54:36;;;;;;;11.20;0.75;;;;;;;;;;5010322;28;20141;-64
2023/10/22 01:57:02;;;;;;;5.65;1.27;;;;;;;;;;5010623;28;20052;-65
2023/10/22 01:59:28;;;;;;;4.20;0.88;;;;;;;;;;5010119;28;20493;-64
2023/10/22 02:01:54;;;;;;;6.68;1.38;;;;;;;;;;5010911;28;20038;-65
2023/10/22 02:04:20;;;;;;;4.03;1.02;;;;;;;;;;5010330;28;20037;-64
2023/10/22 02:06:47;;;;;;;4.38;0.88;;;;;;;;;;5011356;28;20045;-65
2023/10/22 02:09:15;;;;;;;5.50;1.30;;;;;;;;;;5010059;28;20065;-65
2023/10/22 02:11:41;;;;;;;6.70;1.25;;;;;;;;;;5010004;28;20595;-65
2023/10/22 02:14:09;;;;;;;6.50;1.20;;;;;;;;;;5010743;28;20041;-65
2023/10/22 02:16:35;;;;;;;5.88;1.55;;;;;;;;;;5009889;28;20037;-65
2023/10/22 02:19:04;;;;;;;3.30;0.90;;;;;;;;;;5010277;28;20041;-65
2023/10/22 02:21:30;;;;;;;6.43;1.27;;;;;;;;;;5009367;28;20037;-65
2023/10/22 02:23:56;;;;;;;6.15;0.90;;;;;;;;;;5010451;28;20037;-65
2023/10/22 02:26:23;;;;;;;8.82;1.23;;;;;;;;;;5008981;28;20029;-65
2023/10/22 02:28:49;;;;;;;4.47;1.20;;;;;;;;;;5009155;28;20392;-65
2023/10/22 02:31:15;;;;;;;8.40;1.40;;;;;;;;;;5010304;28;20129;-65
2023/10/22 02:33:41;;;;;;;4.43;1.10;;;;;;;;;;5010208;28;20040;-64
2023/10/22 02:36:07;;;;;;;7.07;1.23;;;;;;;;;;5009388;28;20775;-65
2023/10/22 02:38:36;;;;;;;6.03;1.20;;;;;;;;;;5010175;28;20048;-65
2023/10/22 02:41:02;;;;;;;3.45;1.15;;;;;;;;;;5007946;28;20033;-65
2023/10/22 02:43:29;;;;;;;7.45;1.63;;;;;;;;;;5009321;28;20068;-65
2023/10/22 02:45:55;;;;;;;5.47;1.23;;;;;;;;;;5009464;28;20753;-65
2023/10/22 02:48:23;;;;;;;6.00;1.65;;;;;;;;;;5009159;28;20546;-65
2023/10/22 02:50:49;;;;;;;4.72;1.00;;;;;;;;;;5007647;28;20040;-65
2023/10/22 02:53:16;;;;;;;5.68;1.27;;;;;;;;;;5007643;28;20056;-65
2023/10/22 02:55:42;;;;;;;7.30;1.42;;;;;;;;;;5009383;28;20029;-65
2023/10/22 02:58:09;;;;;;;5.45;1.15;;;;;;;;;;5009161;28;20021;-65
2023/10/22 03:00:35;;;;;;;6.20;1.23;;;;;;;;;;5005891;28;20527;-65
2023/10/22 03:03:02;;;;;;;5.03;1.20;;;;;;;;;;5008976;28;20059;-65
2023/10/22 03:05:31;;;;;;;5.85;1.42;;;;;;;;;;5009110;28;20049;-65
2023/10/22 03:07:57;;;;;;;5.03;1.50;;;;;;;;;;5009321;28;20033;-65
2023/10/22 03:10:24;;;;;;;3.88;1.35;;;;;;;;;;5007219;28;20951;-65
2023/10/22 03:12:50;;;;;;;5.55;1.50;;;;;;;;;;5009580;28;20033;-65
2023/10/22 03:15:16;;;;;;;6.75;2.13;;;;;;;;;;5007601;28;20049;-65
2023/10/22 03:17:42;;;;;;;3.45;1.50;;;;;;;;;;5007808;28;20160;-66
2023/10/22 03:20:09;;;;;;;5.32;1.88;;;;;;;;;;5009392;28;20161;-66
2023/10/22 03:22:35;;;;;;;4.68;1.40;;;;;;;;;;5008033;28;20040;-65
2023/10/22 03:25:01;;;;;;;8.77;1.80;;;;;;;;;;5008118;28;20026;-66
2023/10/22 03:27:28;;;;;;;4.50;1.70;;;;;;;;;;5009167;28;20785;-66
2023/10/22 03:29:54;;;;;;;6.55;1.90;;;;;;;;;;5008119;28;20515;-66
2023/10/22 03:32:20;;;;;;;8.82;1.70;;;;;;;;;;5005534;28;20124;-66
2023/10/22 03:34:46;;;;;;;5.72;1.50;;;;;;;;;;5008916;28;20057;-66
2023/10/22 03:37:12;;;;;;;4.93;1.67;;;;;;;;;;5008664;28;20041;-66
2023/10/22 03:39:41;;;;;;;6.13;1.48;;;;;;;;;;5007605;28;20033;-66
2023/10/22 03:42:07;;;;;;;5.30;1.70;;;;;;;;;;5008449;28;20033;-66
2023/10/22 03:44:33;;;;;;;5.15;1.35;;;;;;;;;;5008875;28;20033;-66
2023/10/22 03:46:59;;;;;;;7.28;1.40;;;;;;;;;;5008031;28;20029;-66
2023/10/22 03:49:25;;;;;;;8.23;1.73;;;;;;;;;;5007132;28;20045;-65
2023/10/22 03:51:51;;;;;;;4.68;1.58;;;;;;;;;;5007956;28;20034;-66
2023/10/22 03:54:17;;;;;;;6.88;1.55;;;;;;;;;;5008016;28;20056;-66
2023/10/22 03:56:43;;;;;;;4.40;1.42;;;;;;;;;;5008960;28;20276;-66
2023/10/22 03:59:10;;;;;;;4.25;1.10;;;;;;;;;;5007846;28;20032;-66
2023/10/22 04:01:36;;;;;;;4.18;1.00;;;;;;;;;;5008477;28;20656;-66
2023/10/22 04:04:02;;;;;;;3.00;1.20;;;;;;;;;;5008400;28;20033;-65
2023/10/22 04:06:28;;;;;;;4.43;1.25;;;;;;;;;;5008350;28;20025;-66
2023/10/22 04:08:54;;;;;;;3.10;1.20;;;;;;;;;;5006660;28;20033;-66
2023/10/22 04:11:20;;;;;;;7.22;1.38;;;;;;;;;;5008788;28;20091;-65
2023/10/22 04:13:47;;;;;;;5.45;1.30;;;;;;;;;;5008235;28;20157;-66
2023/10/22 04:16:16;;;;;;;3.38;1.30;;;;;;;;;;5008542;28;20038;-66
2023/10/22 04:18:42;;;;;;;4.80;1.95;;;;;;;;;;5008624;28;20480;-66
2023/10/22 04:21:14;;;;;;;3.15;1.13;;;;;;;;;;5006862;28;20793;-66
2023/10/22 04:23:40;;;;;;;4.22;1.10;;;;;;;;;;5007495;28;20038;-66
2023/10/22 04:26:13;;;;;;;5.60;1.58;;;;;;;;;;5008439;28;20034;-67
2023/10/22 04:28:40;;;;;;;6.20;1.10;;;;;;;;;;5007651;28;20416;-66
2023/10/22 04:31:07;;;;;;;3.45;1.00;;;;;;;;;;5007287;28;20049;-66
2023/10/22 04:33:33;;;;;;;3.03;0.90;;;;;;;;;;5008196;28;20040;-66
2023/10/22 04:35:59;;;;;;;2.47;0.80;;;;;;;;;;5006610;28;20156;-66
2023/10/22 04:38:25;;;;;;;3.30;1.10;;;;;;;;;;5006108;28;20198;-66
2023/10/22 04:40:51;;;;;;;3.65;1.25;;;;;;;;;;5005724;28;20034;-67
2023/10/22 04:43:17;;;;;;;4.82;1.38;;;;;;;;;;5006195;28;20229;-66
2023/10/22 04:45:46;;;;;;;4.20;1.17;;;;;;;;;;5006916;28;20484;-66
2023/10/22 04:48:12;;;;;;;3.35;0.88;;;;;;;;;;5006451;28;20041;-67
2023/10/22 04:50:39;;;;;;;3.50;1.27;;;;;;;;;;5007697;28;20046;-67
2023/10/22 04:53:05;;;;;;;3.25;1.20;;;;;;;;;;5006948;28;20034;-66
2023/10/22 04:55:31;;;;;;;3.78;1.05;;;;;;;;;;5007546;28;20029;-67
2023/10/22 04:57:57;;;;;;;2.72;0.98;;;;;;;;;;5007271;28;20038;-67
2023/10/22 05:00:23;;;;;;;2.25;1.05;;;;;;;;;;5004290;28;20444;-67
2023/10/22 05:02:50;;;;;;;2.00;1.02;;;;;;;;;;5007917;28;20408;-67
2023/10/22 05:05:16;;;;;;;2.28;0.95;;;;;;;;;;5006906;28;20030;-67
2023/10/22 05:07:42;;;;;;;2.63;1.05;;;;;;;;;;5006133;28;20038;-67
2023/10/22 05:10:08;;;;;;;3.15;1.15;;;;;;;;;;5007925;28;20120;-67
2023/10/22 05:12:34;;;;;;;3.22;1.50;;;;;;;;;;5006703;28;20037;-67
2023/10/22 05:15:00;;;;;;;3.80;1.50;;;;;;;;;;5006169;28;20040;-67
2023/10/22 05:17:27;;;;;;;4.13;1.70;;;;;;;;;;5006659;28;20030;-67
2023/10/22 05:19:53;;;;;;;5.85;2.13;;;;;;;;;;5006700;28;20115;-67
2023/10/22 05:22:19;;;;;;;5.43;2.08;;;;;;;;;;5006937;28;20038;-66
2023/10/22 05:24:46;;;;;;;5.18;2.53;;;;;;;;;;5008803;28;20033;-66
2023/10/22 05:27:13;;;;;;;5.30;2.22;;;;;;;;;;5010694;28;20733;-67
2023/10/22 05:29:39;;;;;;;5.10;2.97;;;;;;;;;;5009871;28;20034;-67
2023/10/22 05:32:05;;;;;;;4.60;2.63;;;;;;;;;;5010033;28;20061;-67
2023/10/22 05:34:31;;;;;;;9.05;4.07;;;;;;;;;;5010310;28;20503;-67
2023/10/22 05:36:57;;;;;;;6.95;3.90;;;;;;;;;;5010331;28;20519;-67
2023/10/22 05:39:23;;;;;;;6.13;3.72;;;;;;;;;;5007888;28;20598;-67
2023/10/22 05:41:50;;;;;;;10.32;4.13;;;;;;;;;;5010615;28;20104;-66
2023/10/22 05:44:16;;;;;;;8.38;4.43;;;;;;;;;;5009438;28;20943;-67
2023/10/22 05:46:42;;;;;;;8.15;5.25;;;;;;;;;;5010301;28;20041;-67
2023/10/22 05:49:10;;;;;;;6.85;4.38;;;;;;;;;;5010165;28;20515;-67
2023/10/22 05:51:36;;;;;;;7.30;4.35;;;;;;;;;;5008470;28;20037;-67
2023/10/22 05:54:03;;;;;;;7.47;4.38;;;;;;;;;;5009793;28;20374;-67
2023/10/22 05:56:32;;;;;;;6.50;4.38;;;;;;;;;;5010231;28;20033;-67
2023/10/22 05:58:58;;;;;;;6.57;4.55;;;;;;;;;;5010602;28;20156;-67
2023/10/22 06:01:25;;;;;;;6.70;4.20;;;;;;;;;;5010416;28;20056;-67
2023/10/22 06:03:51;;;;;;;6.50;4.32;;;;;;;;;;5009442;28;20155;-67
2023/10/22 06:06:18;;;;;;;4.60;2.72;;;;;;;;;;5009169;28;20033;-67
2023/10/22 06:08:45;;;;;;;3.75;1.63;;;;;;;;;;5009752;28;20427;-67
2023/10/22 06:11:11;;;;;;;1.58;1.10;;;;;;;;;;5007544;28;20030;-68
2023/10/22 06:13:38;;;;;;;1.25;0.57;;;;;;;;;;5008595;28;20049;-68
2023/10/22 06:16:04;;;;;;;2.35;0.63;;;;;;;;;;5008172;28;20037;-68
2023/10/22 06:18:30;;;;;;;4.15;0.85;;;;;;;;;;5008580;28;20025;-69
2023/10/22 06:20:56;;;;;;;3.13;0.82;;;;;;;;;;5008088;28;20052;-68
2023/10/22 06:23:22;;;;;;;5.72;0.88;;;;;;;;;;5009460;28;20033;-68
2023/10/22 06:25:49;;;;;;;3.97;0.90;;;;;;;;;;5010058;28;20030;-67
2023/10/22 06:28:15;;;;;;;6.32;1.30;;;;;;;;;;5009824;28;20029;-68
2023/10/22 06:30:41;;;;;;;6.28;1.50;;;;;;;;;;5009812;28;20726;-68
2023/10/22 06:33:07;;;;;;;5.63;1.50;;;;;;;;;;5010107;28;20045;-68
2023/10/22 06:35:33;;;;;;;8.45;2.17;;;;;;;;;;5009579;28;20026;-68
2023/10/22 06:37:59;;;;;;;7.05;1.60;;;;;;;;;;5010240;28;20379;-68
2023/10/22 06:40:25;;;;;;;7.35;1.85;;;;;;;;;;5009523;28;21899;-68
2023/10/22 06:42:52;;;;;;;6.43;1.35;;;;;;;;;;5009411;28;20101;-68
2023/10/22 06:45:18;;;;;;;5.78;1.10;;;;;;;;;;5009540;28;20033;-68
2023/10/22 06:47:46;;;;;;;6.10;1.25;;;;;;;;;;5008946;28;20034;-68
2023/10/22 06:50:13;;;;;;;5.35;1.42;;;;;;;;;;5009467;28;20033;-68
2023/10/22 06:52:39;;;;;;;9.27;1.90;;;;;;;;;;5009021;28;20116;-68
2023/10/22 06:55:05;;;;;;;6.93;1.20;;;;;;;;;;4997055;28;20188;-68
2023/10/22 06:57:32;;;;;;;4.97;1.10;;;;;;;;;;4997373;28;20356;-68
2023/10/22 06:59:58;;;;;;;4.80;1.42;;;;;;;;;;4997708;28;20037;-68
2023/10/22 07:02:25;;;;;;;8.20;1.50;;;;;;;;;;4996752;28;20040;-68
2023/10/22 07:04:52;;;;;;;10.30;1.50;;;;;;;;;;4996511;28;20025;-68
2023/10/22 07:07:18;;;;;;;6.00;1.48;;;;;;;;;;4997673;28;20111;-68
2023/10/22 07:09:44;;;;;;;6.75;1.67;;;;;;;;;;4998714;28;20030;-68
2023/10/22 07:12:10;;;;;;;6.45;1.75;;;;;;;;;;4999831;28;20038;-68
2023/10/22 07:14:36;;;;;;;4.30;1.60;;;;;;;;;;4999049;28;20169;-68
2023/10/22 07:17:02;;;;;;;8.60;1.65;;;;;;;;;;4999543;28;20488;-68
2023/10/22 07:19:28;;;;;;;7.38;2.05;;;;;;;;;;4999742;28;20113;-68
2023/10/22 07:21:55;;;;;;;10.68;1.70;;;;;;;;;;4998655;28;20057;-69
2023/10/22 07:24:21;;;;;;;7.68;1.77;;;;;;;;;;5000154;28;20057;-68
2023/10/22 07:26:47;;;;;;;7.13;1.52;;;;;;;;;;4998918;28;20116;-68
2023/10/22 07:29:14;;;;;;;9.48;2.15;;;;;;;;;;4999645;28;20030;-69
2023/10/22 07:31:40;;;;;;;10.25;2.30;;;;;;;;;;4999596;28;21227;-69
2023/10/22 07:34:06;;;;;;;7.70;1.80;;;;;;;;;;4999641;28;20041;-69
2023/10/22 07:36:32;;;;;;;9.25;1.70;;;;;;;;;;4998615;28;20152;-69
2023/10/22 07:38:58;;;;;;;4.80;1.30;;;;;;;;;;4998486;28;20029;-69
2023/10/22 07:41:25;;;;;;;5.22;1.52;;;;;;;;;;5004508;28;20084;-69
2023/10/22 07:43:51;;;;;;;5.63;1.40;;;;;;;;;;5006992;28;20481;-69
2023/10/22 07:46:17;;;;;;;5.90;1.67;;;;;;;;;;5005392;28;20116;-70
2023/10/22 07:48:44;;;;;;;7.53;2.00;;;;;;;;;;5007761;28;20116;-70
2023/10/22 07:51:17;;;;;;;7.57;1.92;;;;;;;;;;5007404;28;20045;-69
2023/10/22 07:53:44;;;;;;;7.32;1.75;;;;;;;;;;5006776;28;20436;-70
2023/10/22 07:56:11;;;;;;;9.52;2.58;;;;;;;;;;5008055;28;20128;-70
2023/10/22 07:58:37;;;;;;;9.65;2.15;;;;;;;;;;5007305;28;20033;-70
2023/10/22 08:01:04;;;;;;;13.32;2.40;;;;;;;;;;5007620;28;20033;-70
2023/10/22 08:03:31;;;;;;;8.20;2.67;;;;;;;;;;5007467;28;20033;-70
2023/10/22 08:05:57;;;;;;;9.90;2.83;;;;;;;;;;5007902;28;20042;-70
2023/10/22 08:08:23;;;;;;;5.53;2.15;;;;;;;;;;5007250;28;20037;-70
2023/10/22 08:10:50;;;;;;;9.90;2.53;;;;;;;;;;5006349;28;20033;-70
2023/10/22 08:13:16;;;;;;;9.35;2.60;;;;;;;;;;5008369;28;20026;-70
2023/10/22 08:15:42;;;;;;;8.93;2.38;;;;;;;;;;5007113;28;20314;-70
2023/10/22 08:18:09;;;;;;;10.20;2.20;;;;;;;;;;5008259;28;20040;-70
2023/10/22 08:20:37;;;;;;;6.43;2.28;;;;;;;;;;5008288;28;20044;-70
2023/10/22 08:23:04;;;;;;;8.07;1.95;;;;;;;;;;5007088;28;20066;-70
2023/10/22 08:25:30;;;;;;;10.43;3.17;;;;;;;;;;5008222;28;20048;-70
2023/10/22 08:27:56;;;;;;;4.78;1.52;;;;;;;;;;5008150;28;20431;-70
2023/10/22 08:30:22;;;;;;;8.65;2.22;;;;;;;;;;5006915;28;20683;-70
2023/10/22 08:32:48;;;;;;;10.63;2.03;;;;;;;;;;5005265;28;20037;-70
2023/10/22 08:35:15;;;;;;;8.95;1.80;;;;;;;;;;5006862;28;20152;-70
2023/10/22 08:37:41;;;;;;;9.45;2.08;;;;;;;;;;5005144;28;20033;-71
2023/10/22 08:40:10;;;;;;;8.85;1.80;;;;;;;;;;5006024;28;20578;-71
2023/10/22 08:42:37;;;;;;;10.52;2.25;;;;;;;;;;5004758;28;20076;-71
2023/10/22 08:45:04;;;;;;;10.45;2.40;;;;;;;;;;5006050;28;20796;-71
2023/10/22 08:47:30;;;;;;;12.65;2.17;;;;;;;;;;5006941;28;20064;-71
2023/10/22 08:49:56;;;;;;;7.90;2.10;;;;;;;;;;5006573;28;20084;-71
2023/10/22 08:52:22;;;;;;;7.18;2.20;;;;;;;;;;5005983;28;20037;-71
2023/10/22 08:54:49;;;;;;;6.80;1.70;;;;;;;;;;5005770;28;20052;-71
2023/10/22 08:57:16;;;;;;;8.00;2.10;;;;;;;;;;5006091;28;20037;-70
2023/10/22 08:59:42;;;;;;;10.18;2.10;;;;;;;;;;5010209;28;20034;-70
2023/10/22 09:02:11;;;;;;;8.18;1.70;;;;;;;;;;5010057;28;20056;-70
2023/10/22 09:04:41;;;;;;;8.93;1.85;;;;;;;;;;5009964;28;20029;-70
2023/10/22 09:07:07;;;;;;;6.22;1.83;;;;;;;;;;5010695;28;21991;-70
2023/10/22 09:09:34;;;;;;;7.63;1.30;;;;;;;;;;5009829;28;20060;-70
2023/10/22 09:12:00;;;;;;;9.07;1.65;;;;;;;;;;5010535;28;20033;-69
2023/10/22 09:14:26;;;;;;;8.55;1.40;;;;;;;;;;5011204;28;21249;-70
2023/10/22 09:16:53;;;;;;;5.93;1.38;;;;;;;;;;5009474;28;20037;-70
2023/10/22 09:19:36;;;;;;;6.57;1.48;;;;;;;;;;5010575;28;20075;-70
2023/10/22 09:22:03;;;;;;;6.70;1.63;;;;;;;;;;5011258;28;20033;-70
2023/10/22 09:24:29;;;;;;;4.97;1.20;;;;;;;;;;5010775;28;20034;-70
2023/10/22 09:26:55;;;;;;;3.30;1.10;;;;;;;;;;5011065;28;20030;-70
2023/10/22 09:29:21;;;;;;;6.22;1.17;;;;;;;;;;5009757;28;20087;-70
2023/10/22 09:31:50;;;;;;;5.93;1.05;;;;;;;;;;5010762;28;20037;-70
2023/10/22 09:34:25;;;;;;;6.72;1.20;;;;;;;;;;5010364;28;20400;-70
2023/10/22 09:36:51;;;;;;;4.65;0.93;;;;;;;;;;5010453;28;20029;-70
2023/10/22 09:39:33;;;;;;;6.18;0.90;;;;;;;;;;5010511;28;20111;-70
2023/10/22 09:42:00;;;;;;;7.40;0.95;;;;;;;;;;5009072;28;20492;-70
2023/10/22 09:44:29;;;;;;;7.03;1.20;;;;;;;;;;5024242;28;20065;-71
2023/10/22 09:46:56;;;;;;;3.60;1.00;;;;;;;;;;5010084;28;20033;-70
2023/10/22 09:49:24;;;;;;;3.35;0.88;;;;;;;;;;5008399;28;20029;-70
2023/10/22 09:51:51;;;;;;;5.18;0.90;;;;;;;;;;5009742;28;20061;-70
2023/10/22 09:54:20;;;;;;;5.90;1.20;;;;;;;;;;5011193;28;20046;-70
2023/10/22 09:56:49;;;;;;;7.18;0.98;;;;;;;;;;5010706;28;20111;-70
2023/10/22 09:59:17;;;;;;;6.05;0.90;;;;;;;;;;5010737;28;20037;-70
2023/10/22 10:01:43;;;;;;;2.65;0.70;;;;;;;;;;5008190;28;20099;-70
2023/10/22 10:04:11;;;;;;;3.63;0.75;;;;;;;;;;5009332;28;20075;-70
2023/10/22 10:06:37;;;;;;;5.72;1.20;;;;;;;;;;5009899;28;20030;-70
2023/10/22 10:09:04;;;;;;;4.30;1.15;;;;;;;;;;5010048;28;20457;-70
2023/10/22 10:11:31;;;;;;;3.13;0.77;;;;;;;;;;5010018;28;21785;-70
2023/10/22 10:13:58;;;;;;;4.68;0.98;;;;;;;;;;5009868;28;20034;-70
2023/10/22 10:16:25;;;;;;;2.40;0.68;;;;;;;;;;5007995;28;20037;-70
2023/10/22 10:19:04;;;;;;;3.60;0.90;;;;;;;;;;5010635;28;20041;-69
2023/10/22 10:21:39;;;;;;;2.53;0.82;;;;;;;;;;5009624;28;20065;-69
2023/10/22 10:24:18;;;;;;;4.60;1.42;;;;;;;;;;5010729;28;21732;-69
2023/10/22 10:26:44;;;;;;;4.60;1.02;;;;;;;;;;5010319;28;20048;-69
2023/10/22 10:29:22;;;;;;;3.97;1.00;;;;;;;;;;5010347;28;20034;-69
2023/10/22 10:31:50;;;;;;;7.50;1.30;;;;;;;;;;5009015;28;20107;-69
2023/10/22 10:34:27;;;;;;;4.47;1.20;;;;;;;;;;5009121;28;20029;-69
2023/10/22 10:36:53;;;;;;;5.78;0.82;;;;;;;;;;5010598;28;20026;-70
2023/10/22 10:39:36;;;;;;;6.78;1.13;;;;;;;;;;5009461;28;20067;-69
2023/10/22 10:42:02;;;;;;;2.43;0.70;;;;;;;;;;5010660;28;20032;-69
2023/10/22 10:44:31;;;;;;;2.47;0.90;;;;;;;;;;5009316;28;20618;-69
2023/10/22 10:47:16;;;;;;;2.38;0.73;;;;;;;;;;5008479;28;20037;-69
2023/10/22 10:50:02;;;;;;;3.33;0.70;;;;;;;;;;5008830;28;20688;-69
2023/10/22 10:52:49;;;;;;;2.80;0.70;;;;;;;;;;5006404;28;20116;-70
2023/10/22 10:55:15;;;;;;;4.15;1.45;;;;;;;;;;5009914;28;20119;-70
2023/10/22 10:57:44;;;;;;;3.17;0.68;;;;;;;;;;5008826;28;21031;-69
2023/10/22 11:00:13;;;;;;;4.93;0.68;;;;;;;;;;5007097;28;20037;-69
2023/10/22 11:02:43;;;;;;;2.03;0.70;;;;;;;;;;5008129;28;20056;-69
2023/10/22 11:05:12;;;;;;;3.58;1.00;;;;;;;;;;5008506;28;20033;-69
2023/10/22 11:07:38;;;;;;;5.75;1.25;;;;;;;;;;5009234;28;20473;-70
2023/10/22 11:10:11;;;;;;;5.95;0.70;;;;;;;;;;5009225;28;20118;-69
2023/10/22 11:12:40;;;;;;;1.98;0.55;;;;;;;;;;5008986;28;20132;-69
2023/10/22 11:15:08;;;;;;;5.10;1.25;;;;;;;;;;5008286;28;20037;-69
2023/10/22 11:17:35;;;;;;;4.18;0.85;;;;;;;;;;5008426;28;20033;-69
2023/10/22 11:20:01;;;;;;;4.47;0.88;;;;;;;;;;5008762;28;20112;-69
2023/10/22 11:22:27;;;;;;;1.83;0.60;;;;;;;;;;5004674;28;20033;-69
2023/10/22 11:24:55;;;;;;;4.68;0.80;;;;;;;;;;5008441;28;20030;-70
2023/10/22 11:27:22;;;;;;;2.50;0.60;;;;;;;;;;5009820;28;20081;-69
2023/10/22 11:29:49;;;;;;;4.68;1.15;;;;;;;;;;5007941;28;20129;-68
2023/10/22 11:32:16;;;;;;;8.50;1.52;;;;;;;;;;5007430;28;20120;-68
2023/10/22 11:34:49;;;;;;;11.70;1.38;;;;;;;;;;5008216;28;20042;-68
2023/10/22 11:37:15;;;;;;;1.80;0.45;;;;;;;;;;5008204;28;20022;-68
2023/10/22 11:39:42;;;;;;;2.72;0.63;;;;;;;;;;5007983;28;20066;-68
2023/10/22 11:42:10;;;;;;;1.67;0.77;;;;;;;;;;5007785;28;20716;-69
2023/10/22 11:44:36;;;;;;;2.35;0.95;;;;;;;;;;5004949;28;20047;-68
2023/10/22 11:47:03;;;;;;;2.22;0.40;;;;;;;;;;5008169;28;20025;-70
2023/10/22 11:49:29;;;;;;;4.68;0.70;;;;;;;;;;5007639;28;20946;-70
2023/10/22 11:51:56;;;;;;;1.85;0.55;;;;;;;;;;5006904;28;20036;-70
2023/10/22 11:54:40;;;;;;;5.88;0.50;;;;;;;;;;5003816;28;20037;-70
2023/10/22 11:57:07;;;;;;;4.22;0.63;;;;;;;;;;5007498;28;20087;-70
2023/10/22 11:59:33;;;;;;;1.27;0.35;;;;;;;;;;5006203;28;20033;-70
2023/10/22 12:01:59;;;;;;;2.38;0.50;;;;;;;;;;5008398;28;20029;-70
2023/10/22 12:04:25;;;;;;;6.13;0.98;;;;;;;;;;5008364;28;20033;-70
2023/10/22 12:06:52;;;;;;;2.38;0.40;;;;;;;;;;5004013;28;20042;-69
2023/10/22 12:09:18;;;;;;;2.42;0.30;;;;;;;;;;5006923;28;20030;-69
2023/10/22 12:11:44;;;;;;;2.97;0.77;;;;;;;;;;5008208;28;20084;-69
2023/10/22 12:14:10;;;;;;;2.85;0.52;;;;;;;;;;5002257;28;20847;-69
2023/10/22 12:16:36;;;;;;;1.20;0.30;;;;;;;;;;5006668;28;20092;-69
2023/10/22 12:19:02;;;;;;;1.75;0.30;;;;;;;;;;5008221;28;20103;-69
2023/10/22 12:21:28;;;;;;;0.85;0.40;;;;;;;;;;5006797;28;20064;-69
2023/10/22 12:23:54;;;;;;;1.25;0.43;;;;;;;;;;5006955;28;20033;-70
2023/10/22 12:26:20;;;;;;;0.70;0.32;;;;;;;;;;5005731;28;20389;-69
2023/10/22 12:28:46;;;;;;;1.73;0.45;;;;;;;;;;5007347;28;21760;-70
2023/10/22 12:31:12;;;;;;;4.07;0.50;;;;;;;;;;5006996;28;20033;-70
2023/10/22 12:33:38;;;;;;;1.48;0.43;;;;;;;;;;5007787;28;20111;-69
2023/10/22 12:36:04;;;;;;;2.47;0.63;;;;;;;;;;5006903;28;20041;-69
2023/10/22 12:38:32;;;;;;;3.20;0.93;;;;;;;;;;5007878;28;20026;-69
2023/10/22 12:40:58;;;;;;;2.00;0.20;;;;;;;;;;5007117;28;20025;-69
2023/10/22 12:43:24;;;;;;;1.33;0.55;;;;;;;;;;5007357;28;20037;-69
2023/10/22 12:45:51;;;;;;;3.47;0.43;;;;;;;;;;5006987;28;20037;-69
2023/10/22 12:48:17;;;;;;;1.98;0.70;;;;;;;;;;5004660;28;20125;-69
2023/10/22 12:50:49;;;;;;;0.63;0.30;;;;;;;;;;5007615;28;20044;-69
2023/10/22 12:53:16;;;;;;;1.58;0.50;;;;;;;;;;5006715;28;20033;-69
2023/10/22 12:55:42;;;;;;;6.03;0.60;;;;;;;;;;5007655;28;20144;-69
2023/10/22 12:58:08;;;;;;;2.08;0.43;;;;;;;;;;5006969;28;20515;-69
2023/10/22 13:00:34;;;;;;;3.58;0.40;;;;;;;;;;5005879;28;20686;-69
2023/10/22 13:03:00;;;;;;;1.70;0.30;;;;;;;;;;5007060;28;20349;-69
2023/10/22 13:05:26;;;;;;;1.73;0.43;;;;;;;;;;5007763;28;21807;-69
2023/10/22 13:07:52;;;;;;;2.58;0.55;;;;;;;;;;5007438;28;20073;-69
2023/10/22 13:10:18;;;;;;;1.92;0.50;;;;;;;;;;5007541;28;20037;-69
2023/10/22 13:12:44;;;;;;;2.05;0.50;;;;;;;;;;5007018;28;20052;-69
2023/10/22 13:15:10;;;;;;;2.13;0.65;;;;;;;;;;5006558;28;20033;-69
2023/10/22 13:17:36;;;;;;;1.25;0.40;;;;;;;;;;5007186;28;20820;-69
2023/10/22 13:20:05;;;;;;;3.97;0.47;;;;;;;;;;5007632;28;20045;-69
2023/10/22 13:22:32;;;;;;;4.78;0.40;;;;;;;;;;5008361;28;20114;-69
2023/10/22 13:24:58;;;;;;;2.28;0.77;;;;;;;;;;5007461;28;20026;-69
2023/10/22 13:27:24;;;;;;;4.05;0.68;;;;;;;;;;5007418;28;20653;-69
2023/10/22 13:29:50;;;;;;;2.28;0.40;;;;;;;;;;5006897;28;20044;-68
2023/10/22 13:32:17;;;;;;;6.20;0.80;;;;;;;;;;5003561;28;20049;-69
2023/10/22 13:34:44;;;;;;;4.15;0.40;;;;;;;;;;5007653;28;20033;-69
2023/10/22 13:37:10;;;;;;;3.53;0.70;;;;;;;;;;5007763;28;20040;-69
2023/10/22 13:39:36;;;;;;;2.80;0.50;;;;;;;;;;5007094;28;20029;-69
2023/10/22 13:42:02;;;;;;;3.88;0.57;;;;;;;;;;5006073;28;20053;-69
2023/10/22 13:44:28;;;;;;;1.85;0.65;;;;;;;;;;5005653;28;20126;-69
2023/10/22 13:46:54;;;;;;;3.20;0.50;;;;;;;;;;5009383;28;20179;-69
2023/10/22 13:49:21;;;;;;;4.13;0.82;;;;;;;;;;5008600;28;20069;-68
2023/10/22 13:51:47;;;;;;;2.83;0.63;;;;;;;;;;5009640;28;20026;-69
2023/10/22 13:54:13;;;;;;;2.67;0.80;;;;;;;;;;5007933;28;20153;-69
2023/10/22 13:56:39;;;;;;;5.60;1.25;;;;;;;;;;5009873;28;20095;-69
2023/10/22 13:59:08;;;;;;;5.40;1.02;;;;;;;;;;5011033;28;20029;-69
2023/10/22 14:01:35;;;;;;;6.72;0.82;;;;;;;;;;5010021;28;20083;-69
2023/10/22 14:04:01;;;;;;;4.65;1.25;;;;;;;;;;5009805;28;20040;-69
2023/10/22 14:06:27;;;;;;;5.57;1.00;;;;;;;;;;5010049;28;20052;-69
2023/10/22 14:08:53;;;;;;;1.77;0.60;;;;;;;;;;5009489;28;20568;-69
2023/10/22 14:11:21;;;;;;;2.97;0.73;;;;;;;;;;5010534;28;20041;-69
2023/10/22 14:13:57;;;;;;;2.97;0.80;;;;;;;;;;5011154;28;20076;-69
2023/10/22 14:16:23;;;;;;;4.68;1.23;;;;;;;;;;5010164;28;20427;-69
2023/10/22 14:18:49;;;;;;;4.82;1.17;;;;;;;;;;5010618;28;20056;-69
2023/10/22 14:21:15;;;;;;;2.67;0.80;;;;;;;;;;5009972;28;20045;-69
2023/10/22 14:23:42;;;;;;;3.65;0.85;;;;;;;;;;5010145;28;20051;-68
2023/10/22 14:26:08;;;;;;;2.88;0.88;;;;;;;;;;5009089;28;20064;-69
2023/10/22 14:28:34;;;;;;;3.55;0.88;;;;;;;;;;5009696;28;20044;-69
2023/10/22 14:31:04;;;;;;;6.20;1.10;;;;;;;;;;5009848;28;20504;-69
2023/10/22 14:33:30;;;;;;;4.07;1.02;;;;;;;;;;5008764;28;20104;-69
2023/10/22 14:36:00;;;;;;;5.78;1.10;;;;;;;;;;5008457;28;20034;-69
2023/10/22 14:38:26;;;;;;;4.55;1.23;;;;;;;;;;5010689;28;20033;-68
2023/10/22 14:40:52;;;;;;;6.43;1.40;;;;;;;;;;5009158;28;20542;-68
2023/10/22 14:43:18;;;;;;;3.72;0.90;;;;;;;;;;5008633;28;20048;-69